createdAt,value
2023-01-07T00:01:12.074Z,9.10
2023-01-07T00:03:40.152Z,9.10
2023-01-07T00:06:12.605Z,9.10
2023-01-07T00:08:41.398Z,9.10
2023-01-07T00:11:11.372Z,9.10
2023-01-07T00:13:39.529Z,9.10
2023-01-07T00:16:09.824Z,9.00
2023-01-07T00:18:37.753Z,9.10
2023-01-07T00:21:08.558Z,9.10
2023-01-07T00:23:36.790Z,9.10
2023-01-07T00:26:10.136Z,9.10
2023-01-07T00:28:40.304Z,9.10
2023-01-07T00:31:27.961Z,9.10
2023-01-07T00:33:55.632Z,9.10
2023-01-07T00:36:25.172Z,9.10
2023-01-07T00:38:57.090Z,9.10
2023-01-07T00:41:24.483Z,9.10
2023-01-07T00:43:54.894Z,9.10
2023-01-07T00:46:22.481Z,9.10
2023-01-07T00:48:49.760Z,9.00
2023-01-07T00:51:17.990Z,9.00
2023-01-07T00:53:45.216Z,9.00
2023-01-07T00:56:14.683Z,9.00
2023-01-07T00:58:42.306Z,9.10
2023-01-07T01:01:10.862Z,9.10
2023-01-07T01:03:39.219Z,9.10
2023-01-07T01:06:14.670Z,9.10
2023-01-07T01:08:44.002Z,9.10
2023-01-07T01:11:13.315Z,9.10
2023-01-07T01:13:41.406Z,9.10
2023-01-07T01:16:14.354Z,9.00
2023-01-07T01:18:42.206Z,9.00
2023-01-07T01:21:11.992Z,9.00
2023-01-07T01:23:39.508Z,9.00
2023-01-07T01:26:09.158Z,9.00
2023-01-07T01:28:36.739Z,9.00
2023-01-07T01:31:04.449Z,8.90
2023-01-07T01:33:41.785Z,9.00
2023-01-07T01:36:11.390Z,9.00
2023-01-07T01:38:38.762Z,9.00
2023-01-07T01:41:06.915Z,9.00
2023-01-07T01:43:37.844Z,9.10
2023-01-07T01:46:25.171Z,9.00
2023-01-07T01:48:59.262Z,9.00
2023-01-07T01:51:34.800Z,9.00
2023-01-07T01:54:11.373Z,9.00
2023-01-07T01:56:43.294Z,9.00
2023-01-07T01:59:15.997Z,9.00
2023-01-07T02:01:43.228Z,9.00
2023-01-07T02:04:18.282Z,9.00
2023-01-07T02:06:54.905Z,9.00
2023-01-07T02:09:22.944Z,9.00
2023-01-07T02:12:18.650Z,9.00
2023-01-07T02:15:04.371Z,9.00
2023-01-07T02:17:39.708Z,9.00
2023-01-07T02:20:28.506Z,8.90
2023-01-07T02:22:55.471Z,8.90
2023-01-07T02:25:46.500Z,8.90
2023-01-07T02:28:22.530Z,8.90
2023-01-07T02:31:08.617Z,8.90
2023-01-07T02:33:46.120Z,8.90
2023-01-07T02:36:37.779Z,8.90
2023-01-07T02:39:33.648Z,8.90
2023-01-07T02:42:14.228Z,8.90
2023-01-07T02:45:11.526Z,8.90
2023-01-07T02:47:43.385Z,9.00
2023-01-07T02:50:10.624Z,9.00
2023-01-07T02:52:37.754Z,9.00
2023-01-07T02:55:19.163Z,9.00
2023-01-07T02:58:09.402Z,8.90
2023-01-07T03:01:04.427Z,8.90
2023-01-07T03:03:31.525Z,9.00
2023-01-07T03:06:36.172Z,9.00
2023-01-07T03:09:21.537Z,9.00
2023-01-07T03:12:42.757Z,9.00
2023-01-07T03:15:18.417Z,9.00
2023-01-07T03:18:28.671Z,8.90
2023-01-07T03:21:14.424Z,9.00
2023-01-07T03:23:50.791Z,8.90
2023-01-07T03:26:23.609Z,8.90
2023-01-07T03:28:53.259Z,8.90
2023-01-07T03:31:22.711Z,8.90
2023-01-07T03:34:12.846Z,8.90
2023-01-07T03:36:57.654Z,9.00
2023-01-07T03:39:33.526Z,9.00
2023-01-07T03:42:19.602Z,9.00
2023-01-07T03:44:46.644Z,9.00
2023-01-07T03:47:14.177Z,8.90
2023-01-07T03:49:41.292Z,8.90
2023-01-07T03:52:08.527Z,8.90
2023-01-07T03:54:36.123Z,8.90
2023-01-07T03:57:03.478Z,8.90
2023-01-07T03:59:30.739Z,8.90
2023-01-07T04:01:57.814Z,8.90
2023-01-07T04:04:25.788Z,8.90
2023-01-07T04:06:53.483Z,8.90
2023-01-07T04:09:22.077Z,8.90
2023-01-07T04:11:49.624Z,8.90
2023-01-07T04:14:16.665Z,8.80
2023-01-07T04:16:43.638Z,8.80
2023-01-07T04:19:11.038Z,8.80
2023-01-07T04:21:38.139Z,8.70
2023-01-07T04:24:06.261Z,8.70
2023-01-07T04:26:33.900Z,8.70
2023-01-07T04:29:01.361Z,8.70
2023-01-07T04:31:28.795Z,8.80
2023-01-07T04:34:00.202Z,8.80
2023-01-07T04:36:27.536Z,8.80
2023-01-07T04:38:54.708Z,8.80
2023-01-07T04:41:22.473Z,8.80
2023-01-07T04:43:50.186Z,8.80
2023-01-07T04:46:17.343Z,8.70
2023-01-07T04:48:44.599Z,8.70
2023-01-07T04:51:11.621Z,8.70
2023-01-07T04:53:39.191Z,8.70
2023-01-07T04:56:07.158Z,8.70
2023-01-07T04:58:34.588Z,8.60
2023-01-07T05:01:03.833Z,8.60
2023-01-07T05:03:34.708Z,8.60
2023-01-07T05:06:02.212Z,8.60
2023-01-07T05:08:32.429Z,8.60
2023-01-07T05:11:00.189Z,8.60
2023-01-07T05:13:27.495Z,8.70
2023-01-07T05:15:54.444Z,8.70
2023-01-07T05:18:21.467Z,8.70
2023-01-07T05:20:48.797Z,8.70
2023-01-07T05:23:16.004Z,8.60
2023-01-07T05:25:44.284Z,8.60
2023-01-07T05:28:12.314Z,8.60
2023-01-07T05:30:57.306Z,8.60
2023-01-07T05:33:24.702Z,8.60
2023-01-07T05:35:51.994Z,8.60
2023-01-07T05:38:19.056Z,8.60
2023-01-07T05:40:50.210Z,8.60
2023-01-07T05:43:21.603Z,8.60
2023-01-07T05:45:49.409Z,8.60
2023-01-07T05:48:16.862Z,8.60
2023-01-07T05:50:44.251Z,8.60
2023-01-07T05:53:11.356Z,8.50
2023-01-07T05:55:41.051Z,8.50
2023-01-07T05:58:08.466Z,8.50
2023-01-07T06:00:42.023Z,8.50
2023-01-07T06:03:09.532Z,8.50
2023-01-07T06:05:36.534Z,8.50
2023-01-07T06:08:03.753Z,8.50
2023-01-07T06:10:30.710Z,8.50
2023-01-07T06:12:58.990Z,8.50
2023-01-07T06:15:26.175Z,8.60
2023-01-07T06:17:53.102Z,8.60
2023-01-07T06:20:20.361Z,8.60
2023-01-07T06:22:47.283Z,8.60
2023-01-07T06:25:16.324Z,8.60
2023-01-07T06:27:43.365Z,8.60
2023-01-07T06:30:12.791Z,8.60
2023-01-07T06:32:41.610Z,8.60
2023-01-07T06:35:11.162Z,8.60
2023-01-07T06:37:38.492Z,8.60
2023-01-07T06:40:06.116Z,8.70
2023-01-07T06:42:33.146Z,8.70
2023-01-07T06:45:00.190Z,8.70
2023-01-07T06:47:27.140Z,8.70
2023-01-07T06:49:54.180Z,8.70
2023-01-07T06:52:21.372Z,8.80
2023-01-07T06:54:48.690Z,8.80
2023-01-07T06:57:15.897Z,8.80
2023-01-07T06:59:42.827Z,8.80
2023-01-07T07:02:21.629Z,8.70
2023-01-07T07:04:49.145Z,8.70
2023-01-07T07:07:16.536Z,8.70
2023-01-07T07:09:43.862Z,8.70
2023-01-07T07:12:11.408Z,8.70
2023-01-07T07:14:38.710Z,8.70
2023-01-07T07:17:06.245Z,8.70
2023-01-07T07:19:33.243Z,8.70
2023-01-07T07:22:01.007Z,8.70
2023-01-07T07:24:28.622Z,8.80
2023-01-07T07:26:55.579Z,8.80
2023-01-07T07:29:22.712Z,8.80
2023-01-07T07:31:51.868Z,8.80
2023-01-07T07:34:18.861Z,8.80
2023-01-07T07:36:46.016Z,8.80
2023-01-07T07:39:13.103Z,8.80
2023-01-07T07:41:40.121Z,8.80
2023-01-07T07:44:09.575Z,8.80
2023-01-07T07:46:36.553Z,8.90
2023-01-07T07:49:03.799Z,8.90
2023-01-07T07:51:36.088Z,8.90
2023-01-07T07:54:03.310Z,8.90
2023-01-07T07:56:30.434Z,8.90
2023-01-07T07:58:57.593Z,8.90
2023-01-07T08:01:40.953Z,8.90
2023-01-07T08:04:09.749Z,8.90
2023-01-07T08:06:42.653Z,8.90
2023-01-07T08:09:09.791Z,8.90
2023-01-07T08:11:39.436Z,8.90
2023-01-07T08:14:08.772Z,8.90
2023-01-07T08:16:38.795Z,8.90
2023-01-07T08:19:06.361Z,8.90
2023-01-07T08:21:33.413Z,9.00
2023-01-07T08:24:03.437Z,9.00
2023-01-07T08:26:30.520Z,8.90
2023-01-07T08:29:03.811Z,9.00
2023-01-07T08:31:30.859Z,9.00
2023-01-07T08:33:59.112Z,9.00
2023-01-07T08:36:27.992Z,9.00
2023-01-07T08:38:55.768Z,9.10
2023-01-07T08:41:24.182Z,9.10
2023-01-07T08:43:51.623Z,9.10
2023-01-07T08:46:24.297Z,9.10
2023-01-07T08:51:36.666Z,9.10
2023-01-07T08:54:13.465Z,9.10
2023-01-07T08:57:08.906Z,9.20
2023-01-07T08:59:48.998Z,9.20
2023-01-07T09:02:27.339Z,9.20
2023-01-07T09:05:10.799Z,9.20
2023-01-07T09:07:38.098Z,9.20
2023-01-07T09:10:05.752Z,9.20
2023-01-07T09:12:32.793Z,9.30
2023-01-07T09:15:00.306Z,9.30
2023-01-07T09:17:27.919Z,9.30
2023-01-07T09:19:55.007Z,9.30
2023-01-07T09:22:23.683Z,9.40
2023-01-07T09:24:51.864Z,9.30
2023-01-07T09:27:19.421Z,9.30
2023-01-07T09:29:46.508Z,9.40
2023-01-07T09:32:13.448Z,9.40
2023-01-07T09:34:40.599Z,9.40
2023-01-07T09:37:07.575Z,9.40
2023-01-07T09:39:34.542Z,9.50
2023-01-07T09:42:25.103Z,9.50
2023-01-07T09:45:04.064Z,9.60
2023-01-07T09:47:34.958Z,9.60
2023-01-07T09:50:27.025Z,9.60
2023-01-07T09:52:58.667Z,9.60
2023-01-07T09:56:11.340Z,9.70
2023-01-07T09:58:29.915Z,9.70
2023-01-07T10:01:17.710Z,9.70
2023-01-07T10:04:10.590Z,9.70
2023-01-07T10:06:57.082Z,9.70
2023-01-07T10:09:33.284Z,9.70
2023-01-07T10:12:16.461Z,9.80
2023-01-07T10:14:58.355Z,9.80
2023-01-07T10:17:38.008Z,9.90
2023-01-07T10:23:19.967Z,9.90
2023-01-07T10:25:52.574Z,9.90
2023-01-07T10:28:46.314Z,9.90
2023-01-07T10:31:23.546Z,10.00
2023-01-07T10:33:51.779Z,10.00
2023-01-07T10:36:28.147Z,10.00
2023-01-07T10:39:22.087Z,10.00
2023-01-07T10:42:00.746Z,10.10
2023-01-07T10:44:52.090Z,10.10
2023-01-07T10:47:54.307Z,10.20
2023-01-07T10:50:40.123Z,10.10
2023-01-07T10:53:37.890Z,10.10
2023-01-07T10:56:05.101Z,10.10
2023-01-07T10:58:45.333Z,10.10
2023-01-07T11:01:39.616Z,10.10
2023-01-07T11:04:14.273Z,10.10
2023-01-07T11:06:41.309Z,10.10
2023-01-07T11:09:13.731Z,10.10
2023-01-07T16:43:44.320Z,9.40
2023-01-07T16:46:50.586Z,9.40
2023-01-07T16:49:26.765Z,9.40
2023-01-07T16:52:14.116Z,9.50
2023-01-07T16:54:43.540Z,9.40
2023-01-07T16:57:10.498Z,9.40
2023-01-07T16:59:55.668Z,9.40
2023-01-07T17:02:39.407Z,9.40
2023-01-07T17:05:18.910Z,9.40
2023-01-07T17:08:01.345Z,9.50
2023-01-07T17:10:30.357Z,9.40
2023-01-07T17:13:00.788Z,9.40
2023-01-07T17:15:33.377Z,9.40
2023-01-07T17:18:27.266Z,9.40
2023-01-07T17:21:10.044Z,9.40
2023-01-07T17:23:45.548Z,9.40
2023-01-07T17:26:23.587Z,9.40
2023-01-07T17:28:59.509Z,9.40
2023-01-07T17:31:28.658Z,9.40
2023-01-07T17:33:58.472Z,9.30
2023-01-07T17:36:26.874Z,9.30
2023-01-07T17:38:56.539Z,9.30
2023-01-07T17:41:42.537Z,9.30
2023-01-07T17:44:17.114Z,9.30
2023-01-07T17:46:45.297Z,9.30
2023-01-07T17:49:21.295Z,9.30
2023-01-07T17:51:50.319Z,9.40
2023-01-07T17:54:21.146Z,9.40
2023-01-07T17:56:48.999Z,9.40
2023-01-07T18:02:07.901Z,9.40
2023-01-07T18:04:36.623Z,9.40
2023-01-07T18:07:03.547Z,9.40
2023-01-07T18:09:42.320Z,9.30
2023-01-07T18:12:32.983Z,9.30
2023-01-07T18:15:06.018Z,9.30
2023-01-07T18:17:39.222Z,9.30
2023-01-07T18:20:16.648Z,9.30
2023-01-07T18:22:51.913Z,9.30
2023-01-07T18:25:21.874Z,9.30
2023-01-07T18:27:57.358Z,9.30
2023-01-07T18:30:25.161Z,9.30
2023-01-07T18:35:48.623Z,9.40
2023-01-07T18:38:21.402Z,9.40
2023-01-07T18:41:34.340Z,9.40
2023-01-07T18:44:31.385Z,9.40
2023-01-07T18:47:04.489Z,9.40
2023-01-07T18:52:16.021Z,9.30
2023-01-07T18:57:35.033Z,9.20
2023-01-07T19:00:04.865Z,9.30
2023-01-07T19:02:34.641Z,9.30
2023-01-07T19:05:05.016Z,9.30
2023-01-07T19:07:42.736Z,9.30
2023-01-07T19:10:16.368Z,9.30
2023-01-07T19:12:43.361Z,9.30
2023-01-07T19:15:22.773Z,9.20
2023-01-07T19:17:49.727Z,9.20
2023-01-07T19:20:17.311Z,9.30
2023-01-07T19:22:48.074Z,9.30
2023-01-07T19:25:20.810Z,9.30
2023-01-07T19:27:52.530Z,9.30
2023-01-07T19:30:19.491Z,9.30
2023-01-07T19:32:55.881Z,9.30
2023-01-07T19:35:24.217Z,9.30
2023-01-07T19:37:52.032Z,9.20
2023-01-07T19:40:20.250Z,9.30
2023-01-07T19:42:48.876Z,9.30
2023-01-07T19:45:29.079Z,9.40
2023-01-07T19:48:00.774Z,9.40
2023-01-07T19:50:33.185Z,9.50
2023-01-07T19:53:00.592Z,9.40
2023-01-07T19:55:27.620Z,9.40
2023-01-07T19:57:56.286Z,9.40
2023-01-07T20:00:25.806Z,9.40
2023-01-07T20:02:54.184Z,9.30
2023-01-07T20:05:22.648Z,9.30
2023-01-07T20:07:50.245Z,9.20
2023-01-07T20:10:17.142Z,9.20
2023-01-07T20:12:49.017Z,9.20
2023-01-07T20:15:15.973Z,9.20
2023-01-07T20:17:43.744Z,9.20
2023-01-07T20:20:11.491Z,9.20
2023-01-07T20:22:39.973Z,9.20
2023-01-07T20:25:12.885Z,9.20
2023-01-07T20:27:47.575Z,9.20
2023-01-07T20:30:14.710Z,9.10
2023-01-07T20:32:46.375Z,9.10
2023-01-07T20:35:22.899Z,9.10
2023-01-07T20:37:54.868Z,9.00
2023-01-07T20:40:23.459Z,9.00
2023-01-07T20:42:57.179Z,9.00
2023-01-07T20:45:38.123Z,9.00
2023-01-07T20:48:06.324Z,9.00
2023-01-07T20:50:35.729Z,9.00
2023-01-07T20:53:04.292Z,9.00
2023-01-07T20:55:33.795Z,8.90
2023-01-07T20:58:10.707Z,8.90
2023-01-07T21:00:44.034Z,8.90
2023-01-07T21:03:10.998Z,8.90
2023-01-07T21:05:38.490Z,8.90
2023-01-07T21:08:05.751Z,8.90
2023-01-07T21:10:32.928Z,8.90
2023-01-07T21:13:08.030Z,8.90
2023-01-07T21:16:06.429Z,8.90
2023-01-07T21:18:45.803Z,8.90
2023-01-07T21:21:17.231Z,8.90
2023-01-07T21:23:48.886Z,8.90
2023-01-07T21:26:18.563Z,8.90
2023-01-07T21:28:50.101Z,8.90
2023-01-07T21:31:17.399Z,8.90
2023-01-07T21:33:45.406Z,8.90
2023-01-07T21:36:18.740Z,8.90
2023-01-07T21:39:00.514Z,8.90
2023-01-07T21:41:30.088Z,8.90
2023-01-07T21:43:58.390Z,8.90
2023-01-07T21:46:27.077Z,9.00
2023-01-07T21:48:55.915Z,9.00
2023-01-07T21:51:27.486Z,9.00
2023-01-07T21:53:56.011Z,9.10
2023-01-07T21:56:28.752Z,9.10
2023-01-07T21:58:55.750Z,9.10
2023-01-07T22:01:31.160Z,9.00
2023-01-07T22:04:03.080Z,9.00
2023-01-07T22:06:46.313Z,9.00
2023-01-07T22:09:19.934Z,9.00
2023-01-07T22:11:49.681Z,9.10
2023-01-07T22:14:18.854Z,9.10
2023-01-07T22:16:49.258Z,9.10
2023-01-07T22:19:41.342Z,9.20
2023-01-07T22:22:08.355Z,9.20
2023-01-07T22:24:41.751Z,9.20
2023-01-07T22:27:09.781Z,9.20
2023-01-07T22:35:16.563Z,9.00
2023-01-07T22:37:55.147Z,9.00
2023-01-07T22:40:30.876Z,9.00
2023-01-07T22:43:14.162Z,9.00
2023-01-07T22:45:52.831Z,9.00
2023-01-07T22:48:24.420Z,9.00
2023-01-07T22:51:03.511Z,9.00
2023-01-07T22:53:30.826Z,9.00
2023-01-07T22:56:02.273Z,9.00
2023-01-07T22:58:36.701Z,9.00
2023-01-07T23:01:36.541Z,8.90
2023-01-07T23:04:09.607Z,8.90
2023-01-07T23:06:39.095Z,8.90
2023-01-07T23:09:11.023Z,8.90
2023-01-07T23:11:50.864Z,8.90
2023-01-07T23:14:21.337Z,8.90
2023-01-07T23:16:49.160Z,8.90
2023-01-07T23:19:23.260Z,8.90
2023-01-07T23:21:55.933Z,8.90
2023-01-07T23:24:29.943Z,8.90
2023-01-07T23:27:03.803Z,8.90
2023-01-07T23:29:34.999Z,8.80
2023-01-07T23:32:12.778Z,8.80
2023-01-07T23:34:40.553Z,8.80
2023-01-07T23:37:07.500Z,8.80
2023-01-07T23:39:37.680Z,8.80
2023-01-07T23:42:05.054Z,8.80
2023-01-07T23:44:32.270Z,8.70
2023-01-07T23:46:59.522Z,8.70
2023-01-07T23:49:26.488Z,8.80
2023-01-07T23:51:53.544Z,8.80
2023-01-07T23:54:20.497Z,8.80
2023-01-07T23:56:51.112Z,8.80
2023-01-07T23:59:21.970Z,8.80
